Secanj

RS-0080 · Vojvodina, Serbia

使用的METAR站距离机场51 km。
罗盘
风向 的 风向 060° Secanj 14/32
风: 2 kt, 1 beaufort


2 kt
改变
0 ft 1.000 2.000 3.000 4.000 5.000
Cloud Cloud
FEW 4.000
METAR LYVR 220400Z 06002KT 9999 FEW040 21/21 Q1010 NOSIG

METAR Secanj - RS-0080

Secanj是,Serbia中的超轻型飞机场。 该机场位于纬度45,40194和经度20,76944。 该机场有一条跑道: 14/32. 这个机场没有ICAO代码,我们使用RS-0080作为参考。 机场在Beograd FIR中。

该航空气象观测是针对Vršac International Airport在2024年7月22日 06:00, 当地时间进行的。

机场观察

风向为060°,速度为2 kt。

可见度为10 km 或者更多。

有几云在4.000 ft的高度。 没有观察到天花板。

温度和风寒是21 °C。 露点为21 °C,相对湿度为100%。 海平面上的气压为1010 hPa (QNH)。

白天

今天,太阳从05:10升起,在20:16降落。 这适用于Secanj,世界夏令时可能有所不同。 当地时间与世界标准时间之间的时差为+2 小时。 夏令时目前正在进行中。

公司介绍

我们没有关于这个机场的公司信息。

体会

到Vliegles.nl去找飞行课程,跳伞和其他飞行体验。 浏览页面,了解Secanj附近所有可用的活动。 你也可以使用搜索功能来寻找你所在地附近的特定飞行课程、跳伞或其他飞行体验。

跑道

Id 标题 侧风 逆风 侧风 %
14/32 140°-320° 2 kt 98 %

逆风成分最大的方向会被突出显示,并用于横风计算。 这并不一定意味着这个方向在使用。

乌云

4.000 ft FEW 几云

温度 & 天气

温度 21 °C
露点 21 °C
相对湿度 100%
Kp-index 1 (0-9)

白天

日出
05:09
中午
12:41
日落
20:13 (13:56)

小工具

你想在你的网站上有一个关于Secanj的当前航空天气(METAR)的小部件吗?

显示HTML代码
报告变更